ADDS METAR Data INFO
IDs: Format: Raw Decoded Include TAF

Data at: 2054 UTC 24 Jun 2017

KPSN 242035Z AUTO 07003KT 10SM CLR 26/22 A3007 RMK AO2 T02680221
KPSN 242015Z AUTO 06004KT 10SM CLR 26/22 A3008 RMK AO2 T02670219
KPSN 241955Z AUTO 07004KT 10SM CLR 26/21 A3009 RMK AO2 T02680218
KPSN 241935Z AUTO 07003KT 10SM CLR 26/22 A3009 RMK AO2 T02690221
KPSN 241915Z AUTO 08004KT 10SM CLR 27/21 A3010 RMK AO2 T02700218
KPSN 241855Z AUTO 06004KT 10SM CLR 27/21 A3010 RMK AO2 T02740216
KPSN 241835Z AUTO 09006KT 10SM CLR 27/21 A3011 RMK AO2 T02750218
KPSN 241815Z AUTO 04005KT 10SM CLR 27/21 A3011 RMK AO2 T02710217
KPSN 241755Z AUTO 03005KT 10SM CLR 26/21 A3012 RMK AO2 T02670216
KPSN 241735Z AUTO 05006KT 10SM CLR 26/21 A3012 RMK AO2 T02590219
KPSN 241715Z AUTO 01003KT 10SM CLR 25/22 A3014 RMK AO2 T02500220
KPSN 241655Z AUTO 02006KT 10SM CLR 24/21 A3013 RMK AO2 T02410218
KPSN 241635Z AUTO 36006KT 10SM CLR 23/21 A3015 RMK AO2 T02380216
KPSN 241615Z AUTO 01010G15KT 10SM CLR 23/21 A3016 RMK AO2 T02350218
KPSN 241555Z AUTO 01010G15KT 7SM BKN012 22/21 A3015 RMK AO2 T02290217
KPSN 241535Z AUTO 36009G14KT 10SM -DZ OVC014 22/21 A3015 RMK AO2 T02240215
KPSN 241515Z AUTO 36007KT 10SM -RA SCT014 SCT019 22/21 A3015 RMK AO2 T02200215
KPSN 241455Z AUTO 01007KT 10SM -DZ BKN008 BKN014 BKN019 21/21 A3014 RMK AO2 T02160213
KPSN 241435Z AUTO 36007G15KT 10SM BKN008 OVC012 21/21 A3013 RMK AO2 T02150212
KPSN 241415Z AUTO 35013G19KT 10SM -RA BKN006 BKN075 BKN085 21/21 A3010 RMK AO2 T02140214
KPSN 241355Z AUTO 35014KT 7SM SCT004 SCT090 SCT120 21/21 A3008 RMK AO2 P0001 T02110211
KPSN 241335Z AUTO 29003KT 10SM CLR 21/21 A3004 RMK AO2 T02100210
KPSN 241315Z AUTO 30003KT 10SM -RA CLR 20/20 A3003 RMK AO2 T02070207
KPSN 241255Z AUTO 32003KT 7SM -RA SCT002 SCT039 SCT048 20/20 A3003 RMK AO2 P0002 T02070207
KPSN 241235Z AUTO 00000KT 5SM -RA SCT002 SCT033 BKN041 20/20 A3003 RMK AO2 P0002 T02070207
KPSN 241215Z AUTO 00000KT 5SM RA SCT001 BKN050 OVC065 20/20 A3003 RMK AO2 P0001 T02070207
KPSN 241155Z AUTO 01003KT 5SM -RA SCT037 SCT047 BKN060 20/20 A3002 RMK AO2 P0008 T02070206
KPSN 241135Z AUTO 00000KT 7SM RA SCT047 BKN055 BKN065 20/20 A3004 RMK AO2 P0006 T02060205
KPSN 241115Z AUTO 30003KT 7SM RA SCT055 SCT065 BKN080 21/20 A3003 RMK AO2 P0003 T02080205
KPSN 241055Z AUTO 23004KT 7SM RA SCT049 BKN055 BKN070 21/20 A3002 RMK AO2 P0006 T02110205
KPSN 241035Z AUTO 12003KT 7SM RA BKN065 BKN070 OVC110 21/20 A3000 RMK AO2 P0002 T02090204
KPSN 241015Z AUTO 22006KT 10SM -RA BKN110 21/20 A3000 RMK AO2 T02100203
KPSN 240955Z AUTO 15004KT 10SM -RA SCT070 OVC110 20/20 A3000 RMK AO2 P0015 T02070201
KPSN 240935Z AUTO 00000KT 10SM -RA SCT055 BKN070 20/20 A3003 RMK AO2 P0015 T02070200
KPSN 240915Z AUTO 02003KT 10SM -RA SCT013 BKN055 OVC070 20/20 A3006 RMK AO2 P0015 T02050200
KPSN 240855Z AUTO 04004KT 2SM +RA BKN007 BKN013 OVC017 20/20 A3007 RMK AO2 P0046 T02050200
KPSN 240835Z AUTO 36010G21KT 3SM +RA BKN015 BKN033 OVC045 21/20 A3008 RMK AO2 P0011 T02120201
KPSN 240815Z AUTO 05026G32KT 7SM SCT015 BKN034 OVC110 26/24 A3003 RMK AO2 T02650241
KPSN 240755Z AUTO 11005KT 7SM SCT035 SCT055 BKN085 26/25 A2998 RMK AO2 T02680250
KPSN 240735Z AUTO 14005KT 7SM SCT050 SCT060 BKN070 26/25 A2997 RMK AO2 T02680250
KPSN 240715Z AUTO 13003KT 7SM SCT070 26/25 A2996 RMK AO2 T02680250
KPSN 240655Z AUTO 13004KT 7SM CLR 26/25 A2995 RMK AO2 T02690250
KPSN 240635Z AUTO 14004KT 7SM CLR 27/25 A2996 RMK AO2 T02710250
KPSN 240615Z AUTO 15004KT 7SM CLR 27/25 A2995 RMK AO2 T02720251
KPSN 240555Z AUTO 13003KT 7SM SCT050 SCT065 27/25 A2995 RMK AO2 T02750252
KPSN 240535Z AUTO 12005KT 7SM BKN050 OVC065 27/25 A2996 RMK AO2 T02800254
KPSN 240515Z AUTO 12003KT 7SM BKN050 27/25 A2996 RMK AO2 T02800255
KPSN 240455Z AUTO 13006KT 7SM CLR 27/25 A2995 RMK AO2 T02800255
KPSN 240435Z AUTO 14006KT 7SM CLR 28/25 A2993 RMK AO2 T02810256
KPSN 240415Z AUTO 14006KT 10SM CLR 28/25 A2992 RMK AO2 T02840257
KPSN 240355Z AUTO 13004KT 10SM CLR 28/25 A2991 RMK AO2 T02860256
KPSN 240335Z AUTO 12006KT 10SM CLR 28/25 A2990 RMK AO2 T02870252
KPSN 240315Z AUTO 11005KT 10SM CLR 28/25 A2989 RMK AO2 T02870251
KPSN 240255Z AUTO 11004KT 10SM CLR 28/25 A2989 RMK AO2 T02900251
KPSN 240235Z AUTO 11004KT 10SM CLR 29/25 A2988 RMK AO2 T02920252
KPSN 240215Z AUTO 10005KT 10SM CLR 29/25 A2987 RMK AO2 T02930253
KPSN 240155Z AUTO 12005KT 10SM CLR 30/25 A2986 RMK AO2 T02970255
KPSN 240135Z AUTO 12004KT 10SM CLR 30/25 A2986 RMK AO2 T03020255
KPSN 240115Z AUTO 12005KT 10SM CLR 30/25 A2985 RMK AO2 T03070257
KPSN 240055Z AUTO 11005KT 10SM CLR 31/26 A2985 RMK AO2 T03120258
KPSN 240035Z AUTO 11005KT 10SM CLR 31/26 A2984 RMK AO2 T03170259
KPSN 240015Z AUTO 12004KT 10SM CLR 32/26 A2984 RMK AO2 T03220259
KPSN 232355Z AUTO 13004KT 10SM CLR 32/26 A2983 RMK AO2 T03250259
KPSN 232335Z AUTO 13005KT 10SM CLR 32/25 A2983 RMK AO2 T03250257
KPSN 232315Z AUTO 00000KT 10SM CLR 32/25 A2982 RMK AO2 T03280250
KPSN 232255Z AUTO 18004KT 10SM CLR 33/24 A2982 RMK AO2 T03300246
KPSN 232235Z AUTO 17005KT 10SM SCT050 33/24 A2982 RMK AO2 T03350244
KPSN 232215Z AUTO 18005KT 10SM SCT050 33/23 A2983 RMK AO2 T03400241
KPSN 232155Z AUTO 16006KT 10SM SCT040 34/24 A2983 RMK AO2 T03460244
KPSN 232135Z AUTO 19007KT 10SM SCT040 SCT046 34/24 A2983 RMK AO2 T03430242
KPSN 232115Z AUTO 19009KT 10SM SCT042 35/23 A2983 RMK AO2 T03480241
KPSN 232055Z AUTO 18009KT 10SM SCT040 SCT047 34/24 A2983 RMK AO2 T03460245
KPSN 232035Z AUTO 19010KT 10SM SCT038 BKN045 35/25 A2984 RMK AO2 T03480248
KPSN 232015Z AUTO 15008KT 10SM SCT038 SCT045 34/25 A2984 RMK AO2 T03430251
KPSN 231955Z AUTO 13009KT 10SM SCT038 33/24 A2984 RMK AO2 T03400246
KPSN 231935Z AUTO 18008KT 10SM SCT036 SCT042 33/25 A2984 RMK AO2 T03400249
KPSN 231915Z AUTO 16008KT 140V210 10SM BKN034 BKN040 33/25 A2984 RMK AO2 T03340249
KPSN 231855Z AUTO 19009KT 10SM SCT032 33/25 A2984 RMK AO2 T03400248
KPSN 231835Z AUTO 16009KT 110V170 10SM SCT032 33/25 A2985 RMK AO2 T03310251
KPSN 231815Z AUTO 15006KT 10SM CLR 32/25 A2985 RMK AO2 T03250252
KPSN 231755Z AUTO 18009KT 10SM SCT029 SCT034 32/24 A2985 RMK AO2 T03230242
KPSN 231735Z AUTO 19006KT 10SM SCT029 SCT034 31/24 A2985 RMK AO2 T03180244
KPSN 231715Z AUTO 16007KT 10SM SCT027 31/24 A2985 RMK AO2 T03150245
KPSN 231655Z AUTO 19011KT 10SM SCT025 SCT033 31/25 A2985 RMK AO2 T03140247
KPSN 231635Z AUTO 20008KT 10SM SCT025 30/25 A2985 RMK AO2 T03070249
KPSN 231615Z AUTO 18009KT 10SM SCT019 SCT025 SCT030 30/25 A2985 RMK AO2 T03050252
KPSN 231555Z AUTO 19006KT 10SM BKN017 BKN025 29/25 A2985 RMK AO2 T02960252
KPSN 231535Z AUTO 18008KT 10SM BKN015 BKN022 28/25 A2985 RMK AO2 T02880251
KPSN 231515Z AUTO 16007KT 10SM BKN015 BKN022 28/25 A2985 RMK AO2 T02850249
KPSN 231455Z AUTO 19009G14KT 10SM BKN013 OVC020 27/25 A2986 RMK AO2 T02780251
KPSN 231435Z AUTO 17009KT 130V200 10SM BKN013 BKN018 27/25 A2985 RMK AO2 T02700251
KPSN 231415Z AUTO 16006KT 7SM BKN013 BKN018 26/25 A2984 RMK AO2 T02650250
KPSN 231355Z AUTO 17006KT 10SM OVC011 26/25 A2983 RMK AO2 T02620249
KPSN 231335Z AUTO 18011G15KT 7SM BKN008 OVC014 26/25 A2982 RMK AO2 T02600248
KPSN 231315Z AUTO 17007KT 7SM BKN008 OVC012 26/25 A2981 RMK AO2 T02600250
KPSN 231255Z AUTO 16006G14KT 7SM OVC006 25/25 A2980 RMK AO2 T02550250
KPSN 231235Z AUTO 16007KT 3SM BR OVC006 25/25 A2980 RMK AO2 T02520250
KPSN 231215Z AUTO 17007KT 5SM BR OVC006 25/25 A2979 RMK AO2 T02510250
KPSN 231155Z AUTO 16007KT 5SM BR OVC006 25/25 A2979 RMK AO2 T02500250
KPSN 231135Z AUTO 17004KT 5SM BR OVC006 25/25 A2979 RMK AO2 T02500250
KPSN 231115Z AUTO 16004KT 7SM BKN006 OVC009 25/25 A2978 RMK AO2 T02500250
KPSN 231055Z AUTO 16004KT 7SM BKN006 OVC009 25/25 A2977 RMK AO2 T02480248
KPSN 231035Z AUTO 15005KT 7SM BKN005 OVC009 25/25 A2977 RMK AO2 T02480248
KPSN 231015Z AUTO 16004KT 7SM SCT007 BKN010 24/24 A2977 RMK AO2 T02470247
KPSN 230955Z AUTO 15004KT 7SM SCT005 SCT010 24/24 A2977 RMK AO2 T02460245
KPSN 230935Z AUTO 16005KT 7SM SCT005 24/24 A2976 RMK AO2 T02460245
KPSN 230915Z AUTO 16004KT 7SM CLR 24/24 A2976 RMK AO2 T02460243
KPSN 230855Z AUTO 17006KT 7SM CLR 24/24 A2976 RMK AO2 T02460243


Page loaded:  20:54 UTC  |   01:54 PM Pacific  |   02:54 PM Mountain  |   03:54 PM Central  |   04:54 PM Eastern

 

ADVISORIES

FORECASTS

FORECASTS

OBSERVATIONS

USER TOOLS

ABOUT US